createdAt,value
2018-04-30T00:00:11.250Z,15.90
2018-04-30T00:02:43.592Z,15.80
2018-04-30T00:05:15.984Z,15.90
2018-04-30T00:07:49.064Z,15.70
2018-04-30T00:10:24.240Z,15.70
2018-04-30T00:12:56.697Z,15.70
2018-04-30T00:15:29.341Z,15.70
2018-04-30T00:18:05.261Z,15.60
2018-04-30T00:20:37.689Z,15.50
2018-04-30T00:23:18.226Z,15.30
2018-04-30T00:25:52.602Z,15.30
2018-04-30T00:28:25.053Z,15.20
2018-04-30T00:30:57.402Z,15.20
2018-04-30T00:33:50.972Z,15.20
2018-04-30T00:36:24.576Z,15.20
2018-04-30T00:38:57.833Z,15.20
2018-04-30T00:41:30.369Z,15.10
2018-04-30T00:44:15.223Z,15.10
2018-04-30T00:46:47.732Z,15.10
2018-04-30T00:49:20.173Z,15.00
2018-04-30T00:51:52.620Z,15.00
2018-04-30T00:54:39.055Z,15.00
2018-04-30T00:57:12.300Z,15.00
2018-04-30T00:59:44.657Z,14.90
2018-04-30T01:02:24.293Z,15.00
2018-04-30T01:04:57.325Z,14.80
2018-04-30T01:07:34.944Z,14.80
2018-04-30T01:10:11.321Z,14.80
2018-04-30T01:12:45.893Z,14.70
2018-04-30T01:15:20.090Z,14.70
2018-04-30T01:17:54.556Z,14.70
2018-04-30T01:20:27.008Z,14.70
2018-04-30T01:22:59.400Z,14.60
2018-04-30T01:25:31.759Z,14.70
2018-04-30T01:28:06.312Z,14.70
2018-04-30T01:30:38.805Z,14.60
2018-04-30T01:33:11.421Z,14.60
2018-04-30T01:35:44.528Z,14.50
2018-04-30T01:38:19.029Z,14.50
2018-04-30T01:40:52.463Z,14.50
2018-04-30T01:43:24.925Z,14.50
2018-04-30T01:45:58.051Z,14.40
2018-04-30T01:48:30.448Z,14.30
2018-04-30T01:51:02.799Z,14.40
2018-04-30T01:53:35.312Z,14.40
2018-04-30T01:56:08.689Z,14.40
2018-04-30T01:58:41.838Z,14.30
2018-04-30T02:01:52.222Z,14.30
2018-04-30T02:04:24.637Z,14.30
2018-04-30T02:06:57.081Z,14.30
2018-04-30T02:09:30.244Z,14.20
2018-04-30T02:12:03.464Z,14.20
2018-04-30T02:14:40.643Z,14.20
2018-04-30T02:17:14.091Z,14.10
2018-04-30T02:19:47.365Z,13.80
2018-04-30T02:22:22.968Z,13.80
2018-04-30T02:25:05.375Z,13.70
2018-04-30T02:27:41.753Z,13.50
2018-04-30T02:30:14.155Z,13.50
2018-04-30T02:32:47.533Z,13.40
2018-04-30T02:35:20.828Z,13.10
2018-04-30T02:37:54.252Z,13.10
2018-04-30T02:40:27.432Z,12.90
2018-04-30T02:42:59.844Z,12.90
2018-04-30T02:45:37.441Z,12.80
2018-04-30T02:48:10.741Z,12.80
2018-04-30T02:50:53.274Z,12.80
2018-04-30T02:53:26.787Z,12.80
2018-04-30T02:56:21.064Z,12.70
2018-04-30T02:59:09.416Z,12.70
2018-04-30T03:04:26.568Z,12.40
2018-04-30T03:06:59.888Z,12.50
2018-04-30T03:09:44.427Z,12.50
2018-04-30T03:12:16.825Z,12.50
2018-04-30T03:14:54.349Z,12.60
2018-04-30T03:17:27.945Z,12.50
2018-04-30T03:20:16.254Z,12.40
2018-04-30T03:22:49.596Z,12.30
2018-04-30T03:25:22.828Z,12.50
2018-04-30T03:27:59.807Z,12.40
2018-04-30T03:30:32.534Z,12.40
2018-04-30T03:33:05.926Z,12.40
2018-04-30T03:35:38.401Z,12.40
2018-04-30T03:38:10.971Z,12.50
2018-04-30T03:40:44.421Z,12.50
2018-04-30T03:43:20.349Z,12.50
2018-04-30T03:45:53.842Z,12.50
2018-04-30T03:48:26.373Z,12.40
2018-04-30T03:51:09.500Z,12.50
2018-04-30T03:53:45.870Z,12.40
2018-04-30T03:56:22.561Z,12.50
2018-04-30T03:59:22.174Z,12.60
2018-04-30T04:02:06.932Z,12.60
2018-04-30T04:04:51.662Z,12.50
2018-04-30T04:07:24.939Z,12.50
2018-04-30T04:10:00.296Z,12.50
2018-04-30T04:12:33.714Z,12.50
2018-04-30T04:15:06.224Z,12.50
2018-04-30T04:17:38.560Z,12.50
2018-04-30T04:20:19.262Z,12.50
2018-04-30T04:22:51.840Z,12.40
2018-04-30T04:25:25.989Z,12.40
2018-04-30T04:27:58.360Z,12.40
2018-04-30T04:30:37.160Z,12.30
2018-04-30T04:33:11.624Z,12.30
2018-04-30T04:35:44.944Z,12.30
2018-04-30T04:38:17.468Z,12.20
2018-04-30T04:40:52.062Z,12.30
2018-04-30T04:43:24.677Z,12.30
2018-04-30T04:45:58.053Z,12.20
2018-04-30T04:48:30.569Z,12.30
2018-04-30T04:51:02.976Z,12.30
2018-04-30T04:53:35.533Z,12.30
2018-04-30T04:56:08.012Z,12.30
2018-04-30T04:58:40.497Z,12.30
2018-04-30T05:01:12.907Z,12.20
2018-04-30T05:03:45.370Z,12.20
2018-04-30T05:06:22.897Z,12.00
2018-04-30T05:08:56.092Z,12.10
2018-04-30T05:11:28.416Z,12.00
2018-04-30T05:14:01.199Z,12.10
2018-04-30T05:16:33.652Z,12.10
2018-04-30T05:19:06.143Z,12.30
2018-04-30T05:21:38.736Z,12.10
2018-04-30T05:24:12.131Z,12.30
2018-04-30T05:26:46.704Z,12.30
2018-04-30T05:29:22.046Z,12.10
2018-04-30T05:31:55.537Z,12.10
2018-04-30T05:34:27.935Z,12.20
2018-04-30T05:37:04.199Z,12.40
2018-04-30T05:39:44.601Z,12.50
2018-04-30T05:42:16.957Z,12.30
2018-04-30T05:44:50.225Z,12.40
2018-04-30T05:47:22.855Z,12.40
2018-04-30T05:49:56.296Z,12.60
2018-04-30T05:52:28.736Z,12.50
2018-04-30T05:55:01.125Z,12.50
2018-04-30T05:57:33.716Z,12.50
2018-04-30T06:00:06.100Z,12.60
2018-04-30T06:02:40.560Z,12.70
2018-04-30T06:05:13.848Z,12.60
2018-04-30T06:07:47.265Z,12.60
2018-04-30T06:10:24.412Z,12.70
2018-04-30T06:12:57.617Z,12.50
2018-04-30T06:15:31.084Z,12.50
2018-04-30T06:18:04.291Z,12.50
2018-04-30T06:20:36.960Z,12.50
2018-04-30T06:23:10.368Z,12.60
2018-04-30T06:25:43.084Z,12.60
2018-04-30T06:28:15.555Z,12.60
2018-04-30T06:30:48.266Z,12.70
2018-04-30T06:33:23.712Z,12.90
2018-04-30T06:35:57.128Z,13.20
2018-04-30T06:38:29.749Z,13.20
2018-04-30T06:41:13.467Z,13.30
2018-04-30T06:43:45.945Z,13.30
2018-04-30T06:46:18.333Z,13.30
2018-04-30T06:48:56.274Z,13.00
2018-04-30T06:51:28.944Z,13.00
2018-04-30T06:54:02.479Z,12.90
2018-04-30T06:56:37.825Z,13.20
2018-04-30T06:59:10.948Z,13.20
2018-04-30T07:01:45.176Z,13.50
2018-04-30T07:04:17.634Z,13.50
2018-04-30T07:06:50.100Z,13.70
2018-04-30T07:09:22.563Z,13.90
2018-04-30T07:11:56.169Z,14.00
2018-04-30T07:14:28.605Z,13.90
2018-04-30T07:17:01.990Z,13.60
2018-04-30T07:19:35.412Z,13.70
2018-04-30T07:22:07.889Z,13.50
2018-04-30T07:24:40.249Z,13.70
2018-04-30T07:27:12.768Z,13.90
2018-04-30T07:29:45.968Z,14.00
2018-04-30T07:32:19.262Z,13.80
2018-04-30T07:34:51.784Z,13.80
2018-04-30T07:37:24.173Z,13.70
2018-04-30T07:39:56.550Z,14.00
2018-04-30T07:42:29.016Z,14.00
2018-04-30T07:45:09.193Z,14.00
2018-04-30T07:47:53.873Z,14.10
2018-04-30T07:50:26.449Z,14.00
2018-04-30T07:52:58.828Z,14.00
2018-04-30T07:55:32.148Z,14.10
2018-04-30T07:58:05.248Z,14.00
2018-04-30T08:00:38.332Z,14.10
2018-04-30T08:03:10.780Z,14.10
2018-04-30T08:05:54.353Z,14.60
2018-04-30T08:08:26.988Z,14.50
2018-04-30T08:10:59.312Z,14.20
2018-04-30T08:13:31.752Z,14.00
2018-04-30T08:16:04.252Z,14.20
2018-04-30T08:18:36.657Z,14.90
2018-04-30T08:21:10.049Z,15.30
2018-04-30T08:23:42.416Z,15.00
2018-04-30T08:26:15.724Z,14.80
2018-04-30T08:28:56.033Z,14.80
2018-04-30T08:31:49.621Z,14.50
2018-04-30T08:34:27.404Z,14.80
2018-04-30T08:37:11.164Z,14.90
2018-04-30T08:39:44.341Z,15.10
2018-04-30T08:42:16.837Z,15.00
2018-04-30T08:44:49.334Z,14.80
2018-04-30T08:47:23.906Z,15.00
2018-04-30T08:49:57.436Z,15.30
2018-04-30T08:52:29.968Z,15.40
2018-04-30T08:55:02.411Z,15.30
2018-04-30T08:57:34.824Z,15.30
2018-04-30T09:00:07.288Z,15.00
2018-04-30T09:02:41.794Z,15.10
2018-04-30T09:05:14.351Z,14.80
2018-04-30T09:07:46.728Z,14.60
2018-04-30T09:10:19.326Z,14.70
2018-04-30T09:12:51.707Z,14.80
2018-04-30T09:15:24.216Z,14.90
2018-04-30T09:17:57.605Z,15.30
2018-04-30T09:20:31.019Z,15.20
2018-04-30T09:23:03.513Z,15.40
2018-04-30T09:25:35.857Z,15.80
2018-04-30T09:28:09.045Z,16.30
2018-04-30T09:30:41.469Z,16.40
2018-04-30T09:33:15.084Z,15.60
2018-04-30T09:35:47.525Z,15.60
2018-04-30T09:38:20.796Z,15.70
2018-04-30T09:40:53.848Z,16.10
2018-04-30T09:43:27.433Z,16.10
2018-04-30T09:46:00.914Z,15.80
2018-04-30T09:48:44.293Z,16.00
2018-04-30T09:51:16.824Z,15.50
2018-04-30T09:53:49.996Z,15.70
2018-04-30T09:56:22.532Z,15.70
2018-04-30T09:58:58.908Z,15.60
2018-04-30T10:01:32.316Z,15.60
2018-04-30T10:04:05.736Z,15.80
2018-04-30T10:06:43.040Z,15.90
2018-04-30T10:09:15.527Z,16.00
2018-04-30T10:11:48.956Z,16.50
2018-04-30T10:14:21.301Z,16.90
2018-04-30T10:16:57.549Z,16.70
2018-04-30T10:19:31.105Z,17.30
2018-04-30T10:22:03.489Z,17.70
2018-04-30T10:24:37.884Z,17.20
2018-04-30T10:27:10.993Z,17.40
2018-04-30T10:29:43.640Z,17.40
2018-04-30T10:32:17.115Z,17.60
2018-04-30T10:34:50.536Z,17.40
2018-04-30T10:37:23.604Z,17.60
2018-04-30T10:39:57.049Z,17.60
2018-04-30T10:42:29.682Z,17.70
2018-04-30T10:45:02.493Z,17.30
2018-04-30T10:47:35.907Z,17.90
2018-04-30T10:50:09.621Z,17.90
2018-04-30T10:52:42.553Z,17.60
2018-04-30T10:55:16.265Z,17.80
2018-04-30T10:57:49.604Z,18.60
2018-04-30T11:00:27.472Z,18.60
2018-04-30T11:03:07.452Z,17.90
2018-04-30T11:05:41.716Z,17.20
2018-04-30T11:08:14.880Z,17.20
2018-04-30T11:10:47.309Z,17.20
2018-04-30T11:13:20.889Z,16.90
2018-04-30T11:16:24.705Z,17.00
2018-04-30T11:18:57.212Z,16.60
2018-04-30T11:21:38.194Z,16.50
2018-04-30T11:24:10.604Z,16.00
2018-04-30T11:26:43.725Z,16.30
2018-04-30T11:29:16.176Z,16.30
2018-04-30T11:31:48.652Z,16.70
2018-04-30T11:34:21.025Z,16.80
2018-04-30T11:36:54.344Z,17.30
2018-04-30T11:39:26.726Z,17.30
2018-04-30T11:41:59.214Z,17.20
2018-04-30T11:44:31.556Z,16.90
2018-04-30T11:47:06.989Z,17.80
2018-04-30T11:49:40.356Z,17.80
2018-04-30T11:52:12.800Z,17.20
2018-04-30T11:54:45.928Z,16.30
2018-04-30T11:57:20.640Z,16.30
2018-04-30T11:59:53.940Z,16.10
2018-04-30T12:02:27.169Z,16.10
2018-04-30T12:05:13.152Z,16.00
2018-04-30T12:07:46.799Z,16.80
2018-04-30T12:10:19.420Z,17.10
2018-04-30T12:12:51.897Z,16.70
2018-04-30T12:15:25.638Z,16.70
2018-04-30T12:17:58.218Z,16.60
2018-04-30T12:20:39.157Z,17.20
2018-04-30T12:23:42.912Z,17.20
2018-04-30T12:26:15.470Z,17.60
2018-04-30T12:28:48.789Z,18.10
2018-04-30T12:31:21.608Z,18.00
2018-04-30T12:33:54.204Z,18.30
2018-04-30T12:36:26.727Z,17.80
2018-04-30T12:38:59.411Z,17.20
2018-04-30T12:41:31.963Z,16.80
2018-04-30T12:44:05.393Z,17.30
2018-04-30T12:46:47.488Z,17.50
2018-04-30T12:49:23.898Z,17.90
2018-04-30T12:51:59.340Z,17.90
2018-04-30T12:54:31.921Z,17.50
2018-04-30T12:57:06.353Z,18.10
2018-04-30T12:59:39.748Z,18.30
2018-04-30T13:02:12.961Z,17.90
2018-04-30T13:04:47.089Z,18.10
2018-04-30T13:07:26.856Z,18.00
2018-04-30T13:10:01.248Z,18.20
2018-04-30T13:12:33.764Z,18.00
2018-04-30T13:15:06.244Z,17.90
2018-04-30T13:17:39.780Z,18.20
2018-04-30T13:20:12.154Z,18.30
2018-04-30T13:22:44.737Z,18.20
2018-04-30T13:25:17.157Z,18.30
2018-04-30T13:27:50.671Z,18.50
2018-04-30T13:30:22.979Z,18.40
2018-04-30T13:33:00.839Z,18.10
2018-04-30T13:35:33.164Z,18.70
2018-04-30T13:38:08.971Z,17.90
2018-04-30T13:40:44.840Z,18.10
2018-04-30T13:43:18.253Z,18.10
2018-04-30T13:45:50.773Z,18.00
2018-04-30T13:48:23.472Z,17.30
2018-04-30T13:51:00.696Z,16.60
2018-04-30T13:53:33.296Z,16.50
2018-04-30T13:56:05.960Z,16.80
2018-04-30T13:58:42.305Z,17.00
2018-04-30T14:01:30.619Z,16.60
2018-04-30T14:04:05.207Z,16.60
2018-04-30T14:06:41.905Z,16.60
2018-04-30T14:09:15.297Z,16.90
2018-04-30T14:11:47.812Z,17.30
2018-04-30T14:14:21.188Z,17.00
2018-04-30T14:16:54.633Z,17.10
2018-04-30T14:19:27.813Z,17.30
2018-04-30T14:22:04.314Z,17.30
2018-04-30T14:24:40.764Z,17.30
2018-04-30T14:27:14.182Z,17.10
2018-04-30T14:29:46.665Z,17.30
2018-04-30T14:32:25.202Z,17.40
2018-04-30T14:34:59.443Z,17.10
2018-04-30T14:37:31.920Z,17.10
2018-04-30T14:40:04.348Z,17.10
2018-04-30T14:42:43.337Z,17.40
2018-04-30T14:45:20.333Z,17.30
2018-04-30T14:48:03.297Z,17.30
2018-04-30T14:50:35.872Z,17.20
2018-04-30T14:53:13.669Z,17.70
2018-04-30T14:55:51.521Z,17.80
2018-04-30T14:58:24.216Z,17.60
2018-04-30T15:00:56.854Z,17.50
2018-04-30T15:03:29.382Z,17.20
2018-04-30T15:06:03.841Z,17.10
2018-04-30T15:08:36.274Z,17.10
2018-04-30T15:11:08.766Z,17.00
2018-04-30T15:13:45.345Z,17.00
2018-04-30T15:16:18.877Z,17.00
2018-04-30T15:18:52.570Z,17.10
2018-04-30T15:21:25.062Z,17.30
2018-04-30T15:23:58.255Z,16.60
2018-04-30T15:26:30.751Z,16.60
2018-04-30T15:29:08.772Z,16.30
2018-04-30T15:31:42.215Z,16.20
2018-04-30T15:34:14.832Z,16.20
2018-04-30T15:36:51.848Z,16.10
2018-04-30T15:39:27.949Z,16.10
2018-04-30T15:42:01.511Z,15.60
2018-04-30T15:44:33.813Z,14.10
2018-04-30T15:47:06.426Z,13.70
2018-04-30T15:49:39.521Z,11.90
2018-04-30T15:52:12.936Z,11.90
2018-04-30T15:54:45.277Z,11.70
2018-04-30T15:57:17.825Z,11.60
2018-04-30T15:59:50.347Z,11.60
2018-04-30T16:02:24.532Z,11.70
2018-04-30T16:05:09.967Z,11.70
2018-04-30T16:07:44.248Z,12.40
2018-04-30T16:10:18.785Z,12.40
2018-04-30T16:12:51.318Z,12.90
2018-04-30T16:15:32.920Z,12.90
2018-04-30T16:18:15.394Z,12.90
2018-04-30T16:20:52.800Z,12.90
2018-04-30T16:23:26.311Z,13.20
2018-04-30T16:26:00.862Z,13.40
2018-04-30T16:28:33.361Z,13.50
2018-04-30T16:31:05.995Z,13.10
2018-04-30T16:33:42.336Z,13.10
2018-04-30T16:36:18.723Z,13.20
2018-04-30T16:38:55.376Z,13.10
2018-04-30T16:41:29.905Z,13.10
2018-04-30T16:44:09.361Z,13.00
2018-04-30T16:46:42.773Z,13.20
2018-04-30T16:49:19.573Z,13.30
2018-04-30T16:51:53.999Z,13.60
2018-04-30T16:54:26.378Z,13.60
2018-04-30T16:56:59.999Z,13.70
2018-04-30T16:59:37.592Z,13.80
2018-04-30T17:02:21.965Z,14.00
2018-04-30T17:04:58.536Z,14.00
2018-04-30T17:07:31.094Z,14.00
2018-04-30T17:10:08.405Z,14.00
2018-04-30T17:12:42.992Z,14.00
2018-04-30T17:15:15.469Z,14.00
2018-04-30T17:17:49.960Z,14.00
2018-04-30T17:20:24.561Z,14.00
2018-04-30T17:23:18.617Z,13.90
2018-04-30T17:26:04.339Z,13.90
2018-04-30T17:28:58.778Z,13.90
2018-04-30T17:31:31.309Z,13.70
2018-04-30T17:34:03.958Z,13.70
2018-04-30T17:36:49.322Z,13.60
2018-04-30T17:39:23.745Z,13.50
2018-04-30T17:41:58.993Z,13.30
2018-04-30T17:44:34.261Z,13.30
2018-04-30T17:47:06.748Z,13.30
2018-04-30T17:49:44.537Z,13.20
2018-04-30T17:52:22.044Z,13.10
2018-04-30T17:54:57.698Z,13.20
2018-04-30T17:57:30.765Z,13.00
2018-04-30T18:00:07.461Z,13.00
2018-04-30T18:02:40.828Z,13.10
2018-04-30T18:05:14.049Z,13.10
2018-04-30T18:07:55.807Z,13.10
2018-04-30T18:10:30.308Z,13.20
2018-04-30T18:13:03.449Z,13.10
2018-04-30T18:15:36.575Z,13.20
2018-04-30T18:18:09.148Z,13.20
2018-04-30T18:20:42.561Z,13.20
2018-04-30T18:23:15.245Z,13.00
2018-04-30T18:26:07.453Z,13.10
2018-04-30T18:28:39.961Z,13.10
2018-04-30T18:31:23.733Z,13.00
2018-04-30T18:33:57.132Z,13.00
2018-04-30T18:36:39.173Z,12.90
2018-04-30T18:39:16.160Z,12.80
2018-04-30T18:41:48.641Z,12.80
2018-04-30T18:44:25.853Z,12.70
2018-04-30T18:47:12.207Z,12.70
2018-04-30T18:49:48.953Z,12.60
2018-04-30T18:52:29.505Z,12.50
2018-04-30T18:55:01.908Z,12.40
2018-04-30T18:57:59.413Z,12.30
2018-04-30T19:00:34.009Z,12.30
2018-04-30T19:03:11.833Z,12.30
2018-04-30T19:05:44.417Z,12.40
2018-04-30T19:08:34.401Z,12.30
2018-04-30T19:11:08.077Z,12.40
2018-04-30T19:13:59.104Z,12.40
2018-04-30T19:16:33.605Z,12.40
2018-04-30T19:19:06.779Z,12.40
2018-04-30T19:21:39.369Z,12.40
2018-04-30T19:24:12.918Z,12.40
2018-04-30T19:27:07.250Z,12.30
2018-04-30T19:29:41.866Z,12.20
2018-04-30T19:32:15.005Z,12.10
2018-04-30T19:34:57.041Z,12.10
2018-04-30T19:37:37.650Z,12.20
2018-04-30T19:40:13.142Z,12.10
2018-04-30T19:42:49.513Z,12.10
2018-04-30T19:45:21.989Z,12.10
2018-04-30T19:48:04.801Z,12.10
2018-04-30T19:50:38.300Z,12.10
2018-04-30T19:53:10.679Z,12.10
2018-04-30T19:55:52.201Z,12.10
2018-04-30T19:58:27.580Z,12.00
2018-04-30T20:01:04.957Z,12.00
2018-04-30T20:03:38.168Z,11.90
2018-04-30T20:06:14.105Z,11.90
2018-04-30T20:08:48.778Z,11.70
2018-04-30T20:11:31.372Z,11.60
2018-04-30T20:14:03.888Z,11.60
2018-04-30T20:16:36.385Z,11.70
2018-04-30T20:19:08.905Z,11.80
2018-04-30T20:21:41.430Z,11.70
2018-04-30T20:24:14.853Z,11.70
2018-04-30T20:26:47.448Z,11.70
2018-04-30T20:29:20.121Z,11.70
2018-04-30T20:31:53.619Z,11.60
2018-04-30T20:34:31.053Z,11.70
2018-04-30T20:37:08.864Z,11.60
2018-04-30T20:39:56.570Z,11.50
2018-04-30T20:42:30.041Z,11.30
2018-04-30T20:45:07.408Z,11.40
2018-04-30T20:47:40.826Z,11.30
2018-04-30T20:50:13.305Z,11.40
2018-04-30T20:52:45.895Z,11.50
2018-04-30T20:55:18.273Z,11.70
2018-04-30T20:58:12.208Z,11.70
2018-04-30T21:00:44.792Z,11.80
2018-04-30T21:03:19.528Z,11.80
2018-04-30T21:05:52.001Z,11.70
2018-04-30T21:09:09.473Z,11.70
2018-04-30T21:11:42.936Z,11.60
2018-04-30T21:14:15.536Z,11.60
2018-04-30T21:16:59.109Z,11.60
2018-04-30T21:19:36.081Z,11.60
2018-04-30T21:22:13.805Z,11.50
2018-04-30T21:24:49.476Z,11.50
2018-04-30T21:27:26.948Z,11.20
2018-04-30T21:30:03.572Z,11.10
2018-04-30T21:32:36.840Z,11.10
2018-04-30T21:35:18.929Z,11.10
2018-04-30T21:38:01.276Z,11.00
2018-04-30T21:40:35.660Z,10.80
2018-04-30T21:43:09.021Z,10.90
2018-04-30T21:45:44.877Z,10.80
2018-04-30T21:48:21.473Z,10.90
2018-04-30T21:50:54.996Z,10.90
2018-04-30T21:53:35.664Z,10.80
2018-04-30T21:56:08.830Z,10.70
2018-04-30T21:58:41.556Z,10.70
2018-04-30T22:01:19.774Z,10.70
2018-04-30T22:03:53.284Z,10.70
2018-04-30T22:06:26.912Z,10.70
2018-04-30T22:08:59.383Z,10.60
2018-04-30T22:12:06.572Z,10.60
2018-04-30T22:14:39.008Z,10.60
2018-04-30T22:17:13.093Z,10.50
2018-04-30T22:19:45.540Z,10.50
2018-04-30T22:22:18.784Z,10.50
2018-04-30T22:24:51.280Z,10.50
2018-04-30T22:27:34.845Z,10.50
2018-04-30T22:30:08.356Z,10.40
2018-04-30T22:32:42.660Z,10.50
2018-04-30T22:35:17.208Z,10.50
2018-04-30T22:37:49.692Z,10.40
2018-04-30T22:40:24.132Z,10.30
2018-04-30T22:42:59.685Z,10.30
2018-04-30T22:45:32.169Z,10.30
2018-04-30T22:48:08.312Z,10.40
2018-04-30T22:50:43.708Z,10.40
2018-04-30T22:53:16.128Z,10.40
2018-04-30T22:56:04.415Z,10.40
2018-04-30T22:58:38.996Z,10.40
2018-04-30T23:01:11.468Z,10.40
2018-04-30T23:03:43.916Z,10.30
2018-04-30T23:06:21.660Z,10.40
2018-04-30T23:08:54.060Z,10.30
2018-04-30T23:11:30.261Z,10.40
2018-04-30T23:14:03.791Z,10.40
2018-04-30T23:16:37.161Z,10.40
2018-04-30T23:19:11.781Z,10.40
2018-04-30T23:21:44.264Z,10.40
2018-04-30T23:24:21.481Z,10.40
2018-04-30T23:26:53.868Z,10.30
2018-04-30T23:29:35.312Z,10.30
2018-04-30T23:32:10.824Z,10.30
2018-04-30T23:34:48.522Z,10.20
2018-04-30T23:37:21.608Z,10.10
2018-04-30T23:39:59.241Z,10.10
2018-04-30T23:42:34.824Z,10.10
2018-04-30T23:45:15.472Z,10.10
2018-04-30T23:47:47.852Z,10.00
2018-04-30T23:50:22.200Z,10.00
2018-04-30T23:52:56.722Z,10.00
2018-04-30T23:55:33.324Z,10.00
2018-04-30T23:58:15.230Z,9.90
